sensor_id;sensor_type;location;lat;lon;timestamp;pressure;altitude;pressure_sealevel;temperature;humidity
22605;BME280;11469;49.024;8.246;2023-02-15T00:01:46;101947.84;;;0.58;100.00
22605;BME280;11469;49.024;8.246;2023-02-15T00:04:19;101938.09;;;0.72;100.00
22605;BME280;11469;49.024;8.246;2023-02-15T00:07:14;101941.28;;;0.64;100.00
22605;BME280;11469;49.024;8.246;2023-02-15T00:09:40;101940.84;;;0.72;100.00
22605;BME280;11469;49.024;8.246;2023-02-15T00:12:05;101944.69;;;0.71;100.00
22605;BME280;11469;49.024;8.246;2023-02-15T00:14:31;101939.94;;;0.66;100.00
22605;BME280;11469;49.024;8.246;2023-02-15T00:16:56;101937.63;;;0.80;100.00
22605;BME280;11469;49.024;8.246;2023-02-15T00:19:25;101936.72;;;0.75;100.00
22605;BME280;11469;49.024;8.246;2023-02-15T00:21:50;101932.56;;;0.72;100.00
22605;BME280;11469;49.024;8.246;2023-02-15T00:24:17;101936.78;;;0.80;100.00
22605;BME280;11469;49.024;8.246;2023-02-15T00:26:43;101933.00;;;0.86;100.00
22605;BME280;11469;49.024;8.246;2023-02-15T00:29:10;101939.28;;;0.81;100.00
22605;BME280;11469;49.024;8.246;2023-02-15T00:31:37;101934.91;;;0.85;100.00
22605;BME280;11469;49.024;8.246;2023-02-15T00:36:31;101929.72;;;0.89;100.00
22605;BME280;11469;49.024;8.246;2023-02-15T00:38:56;101929.72;;;0.89;100.00
22605;BME280;11469;49.024;8.246;2023-02-15T00:41:22;101931.13;;;0.91;100.00
22605;BME280;11469;49.024;8.246;2023-02-15T00:43:47;101936.00;;;0.84;100.00
22605;BME280;11469;49.024;8.246;2023-02-15T00:46:13;101934.28;;;0.78;100.00
22605;BME280;11469;49.024;8.246;2023-02-15T00:48:38;101929.41;;;0.85;100.00
22605;BME280;11469;49.024;8.246;2023-02-15T00:51:03;101935.19;;;0.84;100.00
22605;BME280;11469;49.024;8.246;2023-02-15T00:53:29;101922.59;;;0.93;100.00
22605;BME280;11469;49.024;8.246;2023-02-15T00:55:54;101936.59;;;0.86;100.00
22605;BME280;11469;49.024;8.246;2023-02-15T00:58:20;101941.22;;;0.81;100.00
22605;BME280;11469;49.024;8.246;2023-02-15T01:00:46;101941.53;;;0.84;100.00
22605;BME280;11469;49.024;8.246;2023-02-15T01:03:13;101937.38;;;0.82;100.00
22605;BME280;11469;49.024;8.246;2023-02-15T01:05:39;101936.47;;;0.76;100.00
22605;BME280;11469;49.024;8.246;2023-02-15T01:08:05;101934.88;;;0.80;100.00
22605;BME280;11469;49.024;8.246;2023-02-15T01:10:33;101924.19;;;0.89;100.00
22605;BME280;11469;49.024;8.246;2023-02-15T01:12:59;101921.38;;;0.84;100.00
22605;BME280;11469;49.024;8.246;2023-02-15T01:15:24;101930.50;;;0.84;100.00
22605;BME280;11469;49.024;8.246;2023-02-15T01:17:50;101923.31;;;0.83;100.00
22605;BME280;11469;49.024;8.246;2023-02-15T01:20:24;101934.28;;;0.78;100.00
22605;BME280;11469;49.024;8.246;2023-02-15T01:22:50;101917.03;;;0.66;100.00
22605;BME280;11469;49.024;8.246;2023-02-15T01:25:17;101920.16;;;0.75;100.00
22605;BME280;11469;49.024;8.246;2023-02-15T01:27:43;101921.06;;;0.80;100.00
22605;BME280;11469;49.024;8.246;2023-02-15T01:30:09;101923.56;;;0.82;100.00
22605;BME280;11469;49.024;8.246;2023-02-15T01:32:35;101920.50;;;0.78;100.00
22605;BME280;11469;49.024;8.246;2023-02-15T01:35:00;101912.25;;;0.83;100.00
22605;BME280;11469;49.024;8.246;2023-02-15T01:37:26;101917.41;;;0.75;100.00
22605;BME280;11469;49.024;8.246;2023-02-15T01:39:51;101918.25;;;0.75;100.00
22605;BME280;11469;49.024;8.246;2023-02-15T01:42:24;101911.56;;;0.71;100.00
22605;BME280;11469;49.024;8.246;2023-02-15T01:44:54;101914.03;;;0.68;100.00
22605;BME280;11469;49.024;8.246;2023-02-15T01:47:43;101917.03;;;0.66;100.00
22605;BME280;11469;49.024;8.246;2023-02-15T01:50:28;101903.34;;;0.76;100.00
22605;BME280;11469;49.024;8.246;2023-02-15T01:55:41;101915.38;;;0.65;100.00
22605;BME280;11469;49.024;8.246;2023-02-15T01:58:09;101903.75;;;0.63;100.00
22605;BME280;11469;49.024;8.246;2023-02-15T02:00:35;101902.31;;;0.82;100.00
22605;BME280;11469;49.024;8.246;2023-02-15T02:03:01;101903.25;;;0.66;100.00
22605;BME280;11469;49.024;8.246;2023-02-15T02:05:28;101906.50;;;0.63;100.00
22605;BME280;11469;49.024;8.246;2023-02-15T02:07:57;101894.91;;;0.61;100.00
22605;BME280;11469;49.024;8.246;2023-02-15T02:10:24;101899.91;;;0.64;100.00
22605;BME280;11469;49.024;8.246;2023-02-15T02:12:58;101898.81;;;0.65;100.00
22605;BME280;11469;49.024;8.246;2023-02-15T02:15:37;101898.81;;;0.65;100.00
22605;BME280;11469;49.024;8.246;2023-02-15T02:23:42;101891.56;;;0.59;100.00
22605;BME280;11469;49.024;8.246;2023-02-15T02:43:52;101873.25;;;0.75;100.00
22605;BME280;11469;49.024;8.246;2023-02-15T02:46:31;101864.97;;;0.75;100.00
22605;BME280;11469;49.024;8.246;2023-02-15T02:49:00;101861.69;;;0.78;100.00
22605;BME280;11469;49.024;8.246;2023-02-15T02:51:26;101869.50;;;0.86;100.00
22605;BME280;11469;49.024;8.246;2023-02-15T02:53:54;101867.78;;;0.80;100.00
22605;BME280;11469;49.024;8.246;2023-02-15T02:56:29;101860.34;;;0.80;100.00
22605;BME280;11469;49.024;8.246;2023-02-15T02:59:16;101850.13;;;0.81;100.00
22605;BME280;11469;49.024;8.246;2023-02-15T03:01:52;101848.03;;;0.66;100.00
22605;BME280;11469;49.024;8.246;2023-02-15T03:04:27;101851.06;;;0.64;100.00
22605;BME280;11469;49.024;8.246;2023-02-15T03:07:05;101842.06;;;0.74;100.00
22605;BME280;11469;49.024;8.246;2023-02-15T03:09:36;101852.78;;;0.71;100.00
22605;BME280;11469;49.024;8.246;2023-02-15T03:12:21;101855.28;;;0.72;100.00
22605;BME280;11469;49.024;8.246;2023-02-15T03:14:53;101864.97;;;0.75;100.00
22605;BME280;11469;49.024;8.246;2023-02-15T03:17:22;101864.84;;;0.64;100.00
22605;BME280;11469;49.024;8.246;2023-02-15T03:19:50;101871.22;;;0.65;100.00
22605;BME280;11469;49.024;8.246;2023-02-15T03:24:53;101866.31;;;0.72;100.00
22605;BME280;11469;49.024;8.246;2023-02-15T03:27:24;101862.47;;;0.73;100.00
22605;BME280;11469;49.024;8.246;2023-02-15T03:29:56;101859.81;;;0.83;100.00
22605;BME280;11469;49.024;8.246;2023-02-15T03:32:25;101857.31;;;0.82;100.00
22605;BME280;11469;49.024;8.246;2023-02-15T03:34:52;101849.97;;;0.92;100.00
22605;BME280;11469;49.024;8.246;2023-02-15T03:40:16;101847.69;;;0.84;100.00
22605;BME280;11469;49.024;8.246;2023-02-15T03:43:12;101860.53;;;0.74;100.00
22605;BME280;11469;49.024;8.246;2023-02-15T03:45:40;101848.63;;;0.68;100.00
22605;BME280;11469;49.024;8.246;2023-02-15T03:48:22;101851.28;;;0.85;100.00
22605;BME280;11469;49.024;8.246;2023-02-15T03:50:52;101852.00;;;0.75;100.00
22605;BME280;11469;49.024;8.246;2023-02-15T03:53:39;101856.13;;;0.73;100.00
22605;BME280;11469;49.024;8.246;2023-02-15T03:56:05;101865.84;;;0.80;100.00
22605;BME280;11469;49.024;8.246;2023-02-15T03:58:30;101857.31;;;0.82;100.00
22605;BME280;11469;49.024;8.246;2023-02-15T04:01:24;101855.38;;;0.82;100.00
22605;BME280;11469;49.024;8.246;2023-02-15T04:04:40;101855.97;;;0.84;100.00
22605;BME280;11469;49.024;8.246;2023-02-15T04:07:08;101859.25;;;0.81;100.00
22605;BME280;11469;49.024;8.246;2023-02-15T04:09:34;101855.06;;;0.79;100.00
22605;BME280;11469;49.024;8.246;2023-02-15T04:12:18;101849.88;;;0.82;100.00
22605;BME280;11469;49.024;8.246;2023-02-15T04:14:44;101850.53;;;0.94;100.00
22605;BME280;11469;49.024;8.246;2023-02-15T04:17:27;101852.69;;;0.87;100.00
22605;BME280;11469;49.024;8.246;2023-02-15T04:19:53;101845.19;;;0.83;100.00
22605;BME280;11469;49.024;8.246;2023-02-15T04:22:37;101849.69;;;0.94;100.00
22605;BME280;11469;49.024;8.246;2023-02-15T04:25:21;101839.56;;;1.05;100.00
22605;BME280;11469;49.024;8.246;2023-02-15T04:27:51;101853.56;;;0.98;100.00
22605;BME280;11469;49.024;8.246;2023-02-15T04:30:21;101851.06;;;0.91;100.00
22605;BME280;11469;49.024;8.246;2023-02-15T04:32:47;101855.97;;;0.84;100.00
22605;BME280;11469;49.024;8.246;2023-02-15T04:35:13;101842.69;;;0.81;100.00
22605;BME280;11469;49.024;8.246;2023-02-15T04:37:40;101847.31;;;0.76;100.00
22605;BME280;11469;49.024;8.246;2023-02-15T04:40:07;101849.88;;;0.82;100.00
22605;BME280;11469;49.024;8.246;2023-02-15T04:42:33;101846.53;;;0.80;100.00
22605;BME280;11469;49.024;8.246;2023-02-15T04:44:59;101844.81;;;0.74;100.00
22605;BME280;11469;49.024;8.246;2023-02-15T04:47:25;101836.84;;;0.78;100.00
22605;BME280;11469;49.024;8.246;2023-02-15T04:49:50;101855.59;;;0.76;100.00
22605;BME280;11469;49.024;8.246;2023-02-15T04:52:16;101851.13;;;0.70;100.00
22605;BME280;11469;49.024;8.246;2023-02-15T04:54:43;101851.38;;;0.68;100.00
22605;BME280;11469;49.024;8.246;2023-02-15T04:57:08;101842.84;;;0.70;100.00
22605;BME280;11469;49.024;8.246;2023-02-15T04:59:34;101855.03;;;0.74;100.00
22605;BME280;11469;49.024;8.246;2023-02-15T05:01:59;101844.25;;;0.72;100.00
22605;BME280;11469;49.024;8.246;2023-02-15T05:04:24;101849.25;;;0.75;100.00
22605;BME280;11469;49.024;8.246;2023-02-15T05:06:50;101849.88;;;0.82;100.00
22605;BME280;11469;49.024;8.246;2023-02-15T05:09:16;101836.31;;;0.81;100.00
22605;BME280;11469;49.024;8.246;2023-02-15T05:11:41;101839.72;;;0.88;100.00
22605;BME280;11469;49.024;8.246;2023-02-15T05:14:07;101834.72;;;0.85;100.00
22605;BME280;11469;49.024;8.246;2023-02-15T05:16:32;101826.94;;;0.82;100.00
22605;BME280;11469;49.024;8.246;2023-02-15T05:18:57;101836.84;;;0.78;100.00
22605;BME280;11469;49.024;8.246;2023-02-15T05:21:23;101839.50;;;0.68;100.00
22605;BME280;11469;49.024;8.246;2023-02-15T05:23:48;101838.97;;;0.71;100.00
22605;BME280;11469;49.024;8.246;2023-02-15T05:26:18;101847.53;;;0.69;100.00
22605;BME280;11469;49.024;8.246;2023-02-15T05:29:03;101836.16;;;0.65;100.00
22605;BME280;11469;49.024;8.246;2023-02-15T05:31:28;101835.06;;;0.66;100.00
22605;BME280;11469;49.024;8.246;2023-02-15T05:33:55;101832.06;;;0.68;100.00
22605;BME280;11469;49.024;8.246;2023-02-15T05:36:20;101836.16;;;0.65;100.00
22605;BME280;11469;49.024;8.246;2023-02-15T05:38:45;101838.09;;;0.65;100.00
22605;BME280;11469;49.024;8.246;2023-02-15T05:41:11;101837.78;;;0.61;100.00
22605;BME280;11469;49.024;8.246;2023-02-15T05:43:37;101842.47;;;0.61;100.00
22605;BME280;11469;49.024;8.246;2023-02-15T05:46:03;101843.63;;;0.65;100.00
22605;BME280;11469;49.024;8.246;2023-02-15T05:48:29;101841.47;;;0.72;100.00
22605;BME280;11469;49.024;8.246;2023-02-15T05:51:06;101842.56;;;0.71;100.00
22605;BME280;11469;49.024;8.246;2023-02-15T05:53:35;101854.97;;;0.69;100.00
22605;BME280;11469;49.024;8.246;2023-02-15T05:56:01;101848.88;;;0.66;100.00
22605;BME280;11469;49.024;8.246;2023-02-15T05:58:35;101852.16;;;0.63;100.00
22605;BME280;11469;49.024;8.246;2023-02-15T06:01:15;101849.66;;;0.62;100.00
22605;BME280;11469;49.024;8.246;2023-02-15T06:03:42;101844.59;;;0.54;100.00
22605;BME280;11469;49.024;8.246;2023-02-15T06:06:08;101850.94;;;0.54;100.00
22605;BME280;11469;49.024;8.246;2023-02-15T06:08:35;101854.03;;;0.58;100.00
22605;BME280;11469;49.024;8.246;2023-02-15T06:11:01;101854.84;;;0.58;100.00
22605;BME280;11469;49.024;8.246;2023-02-15T06:13:26;101857.81;;;0.52;100.00
22605;BME280;11469;49.024;8.246;2023-02-15T06:15:52;101858.34;;;0.49;100.00
22605;BME280;11469;49.024;8.246;2023-02-15T06:18:17;101860.25;;;0.43;100.00
22605;BME280;11469;49.024;8.246;2023-02-15T06:20:48;101866.91;;;0.47;100.00
22605;BME280;11469;49.024;8.246;2023-02-15T06:23:14;101865.25;;;0.51;100.00
22605;BME280;11469;49.024;8.246;2023-02-15T06:25:40;101870.22;;;0.49;100.00
22605;BME280;11469;49.024;8.246;2023-02-15T06:28:06;101863.03;;;0.48;100.00
22605;BME280;11469;49.024;8.246;2023-02-15T06:30:31;101875.19;;;0.47;100.00
22605;BME280;11469;49.024;8.246;2023-02-15T06:32:57;101871.53;;;0.42;100.00
22605;BME280;11469;49.024;8.246;2023-02-15T06:35:23;101879.28;;;0.45;100.00
22605;BME280;11469;49.024;8.246;2023-02-15T06:37:48;101882.34;;;0.48;100.00
22605;BME280;11469;49.024;8.246;2023-02-15T06:40:14;101882.34;;;0.48;100.00
22605;BME280;11469;49.024;8.246;2023-02-15T06:42:41;101881.47;;;0.43;100.00
22605;BME280;11469;49.024;8.246;2023-02-15T06:45:08;101879.81;;;0.42;100.00
22605;BME280;11469;49.024;8.246;2023-02-15T06:47:33;101880.97;;;0.46;100.00
22605;BME280;11469;49.024;8.246;2023-02-15T06:49:59;101879.81;;;0.42;100.00
22605;BME280;11469;49.024;8.246;2023-02-15T06:52:24;101885.84;;;0.39;100.00
22605;BME280;11469;49.024;8.246;2023-02-15T06:54:50;101886.59;;;0.34;100.00
22605;BME280;11469;49.024;8.246;2023-02-15T06:57:15;101882.75;;;0.35;100.00
22605;BME280;11469;49.024;8.246;2023-02-15T06:59:41;101883.59;;;0.36;100.00
22605;BME280;11469;49.024;8.246;2023-02-15T07:02:08;101886.59;;;0.34;100.00
22605;BME280;11469;49.024;8.246;2023-02-15T07:04:34;101888.34;;;0.40;100.00
22605;BME280;11469;49.024;8.246;2023-02-15T07:06:59;101885.91;;;0.44;100.00
22605;BME280;11469;49.024;8.246;2023-02-15T07:09:25;101891.16;;;0.45;100.00
22605;BME280;11469;49.024;8.246;2023-02-15T07:11:51;101888.66;;;0.44;100.00
22605;BME280;11469;49.024;8.246;2023-02-15T07:14:35;101885.91;;;0.44;100.00
22605;BME280;11469;49.024;8.246;2023-02-15T07:17:00;101895.47;;;0.36;100.00
22605;BME280;11469;49.024;8.246;2023-02-15T07:19:25;101891.03;;;0.35;100.00
22605;BME280;11469;49.024;8.246;2023-02-15T07:21:51;101889.94;;;0.36;100.00
22605;BME280;11469;49.024;8.246;2023-02-15T07:24:16;101888.91;;;0.42;100.00
22605;BME280;11469;49.024;8.246;2023-02-15T07:26:42;101890.84;;;0.42;100.00
22605;BME280;11469;49.024;8.246;2023-02-15T07:29:07;101887.50;;;0.40;100.00
22605;BME280;11469;49.024;8.246;2023-02-15T07:31:32;101887.25;;;0.41;100.00
22605;BME280;11469;49.024;8.246;2023-02-15T07:33:58;101878.97;;;0.41;100.00
22605;BME280;11469;49.024;8.246;2023-02-15T07:36:23;101888.41;;;0.45;100.00
22605;BME280;11469;49.024;8.246;2023-02-15T07:38:49;101890.31;;;0.45;100.00
22605;BME280;11469;49.024;8.246;2023-02-15T07:41:15;101892.50;;;0.43;100.00
22605;BME280;11469;49.024;8.246;2023-02-15T07:43:42;101889.50;;;0.44;100.00
22605;BME280;11469;49.024;8.246;2023-02-15T07:46:10;101887.25;;;0.41;100.00
22605;BME280;11469;49.024;8.246;2023-02-15T07:48:37;101876.72;;;0.38;100.00
22605;BME280;11469;49.024;8.246;2023-02-15T07:51:04;101884.50;;;0.41;100.00
22605;BME280;11469;49.024;8.246;2023-02-15T07:53:31;101886.66;;;0.39;100.00
22605;BME280;11469;49.024;8.246;2023-02-15T07:56:04;101886.66;;;0.39;100.00
22605;BME280;11469;49.024;8.246;2023-02-15T07:58:31;101884.16;;;0.38;100.00
22605;BME280;11469;49.024;8.246;2023-02-15T08:01:15;101877.56;;;0.39;100.00
22605;BME280;11469;49.024;8.246;2023-02-15T08:03:40;101874.81;;;0.39;100.00
22605;BME280;11469;49.024;8.246;2023-02-15T08:06:06;101865.06;;;0.58;100.00
22605;BME280;11469;49.024;8.246;2023-02-15T08:08:35;101878.22;;;0.51;100.00
22605;BME280;11469;49.024;8.246;2023-02-15T08:11:20;101879.38;;;0.55;100.00
22605;BME280;11469;49.024;8.246;2023-02-15T08:16:38;101876.03;;;0.53;100.00
22605;BME280;11469;49.024;8.246;2023-02-15T08:19:07;101863.03;;;0.48;100.00
22605;BME280;11469;49.024;8.246;2023-02-15T08:21:34;101870.47;;;0.48;100.00
22605;BME280;11469;49.024;8.246;2023-02-15T08:24:00;101862.00;;;0.54;100.00
22605;BME280;11469;49.024;8.246;2023-02-15T08:26:27;101862.88;;;0.60;100.00
22605;BME280;11469;49.024;8.246;2023-02-15T08:28:53;101870.38;;;0.64;100.00
22605;BME280;11469;49.024;8.246;2023-02-15T08:31:19;101866.22;;;0.62;100.00
22605;BME280;11469;49.024;8.246;2023-02-15T08:33:45;101870.91;;;0.61;100.00
22605;BME280;11469;49.024;8.246;2023-02-15T08:36:15;101867.31;;;0.61;100.00
22605;BME280;11469;49.024;8.246;2023-02-15T08:38:41;101866.72;;;0.59;100.00
22605;BME280;11469;49.024;8.246;2023-02-15T08:41:21;101861.84;;;0.66;100.00
22605;BME280;11469;49.024;8.246;2023-02-15T08:43:52;101859.13;;;0.71;100.00
22605;BME280;11469;49.024;8.246;2023-02-15T08:46:19;101858.63;;;0.74;100.00
22605;BME280;11469;49.024;8.246;2023-02-15T08:48:46;101860.59;;;0.79;100.00
22605;BME280;11469;49.024;8.246;2023-02-15T08:51:17;101862.25;;;0.80;100.00
22605;BME280;11469;49.024;8.246;2023-02-15T08:53:47;101849.25;;;0.75;100.00
22605;BME280;11469;49.024;8.246;2023-02-15T08:56:17;101851.75;;;0.77;100.00
22605;BME280;11469;49.024;8.246;2023-02-15T08:58:43;101846.66;;;0.95;100.00
22605;BME280;11469;49.024;8.246;2023-02-15T09:01:13;101844.81;;;1.06;100.00
22605;BME280;11469;49.024;8.246;2023-02-15T09:03:43;101832.31;;;0.98;100.00
22605;BME280;11469;49.024;8.246;2023-02-15T09:06:09;101835.97;;;1.04;100.00
22605;BME280;11469;49.024;8.246;2023-02-15T09:08:34;101840.28;;;1.27;100.00
22605;BME280;11469;49.024;8.246;2023-02-15T09:11:28;101836.09;;;1.19;100.00
22605;BME280;11469;49.024;8.246;2023-02-15T09:14:02;101838.50;;;1.11;100.00
22605;BME280;11469;49.024;8.246;2023-02-15T09:16:30;101840.13;;;1.07;100.00
22605;BME280;11469;49.024;8.246;2023-02-15T09:18:56;101840.13;;;1.07;100.00
22605;BME280;11469;49.024;8.246;2023-02-15T09:21:33;101838.81;;;1.14;100.00
22605;BME280;11469;49.024;8.246;2023-02-15T09:24:00;101833.84;;;1.16;100.00
22605;BME280;11469;49.024;8.246;2023-02-15T09:26:28;101839.69;;;1.20;100.00
22605;BME280;11469;49.024;8.246;2023-02-15T09:28:56;101842.56;;;1.35;100.00
22605;BME280;11469;49.024;8.246;2023-02-15T09:31:25;101837.78;;;1.25;100.00
22605;BME280;11469;49.024;8.246;2023-02-15T09:33:51;101827.84;;;1.24;100.00
22605;BME280;11469;49.024;8.246;2023-02-15T09:36:26;101835.91;;;1.31;100.00
22605;BME280;11469;49.024;8.246;2023-02-15T09:38:55;101830.94;;;1.33;100.00
22605;BME280;11469;49.024;8.246;2023-02-15T09:44:25;101848.41;;;1.39;100.00
22605;BME280;11469;49.024;8.246;2023-02-15T09:47:19;101838.97;;;1.35;100.00
22605;BME280;11469;49.024;8.246;2023-02-15T09:49:54;101846.16;;;1.36;100.00
22605;BME280;11469;49.024;8.246;2023-02-15T09:55:22;101847.03;;;1.46;100.00
22605;BME280;11469;49.024;8.246;2023-02-15T10:05:50;101852.59;;;1.51;100.00
22605;BME280;11469;49.024;8.246;2023-02-15T10:08:48;101840.44;;;1.52;100.00
22605;BME280;11469;49.024;8.246;2023-02-15T10:11:25;101839.13;;;1.60;100.00
22605;BME280;11469;49.024;8.246;2023-02-15T10:20:15;101835.25;;;1.61;100.00
22605;BME280;11469;49.024;8.246;2023-02-15T10:25:31;101825.38;;;1.70;100.00
22605;BME280;11469;49.024;8.246;2023-02-15T10:28:05;101820.69;;;1.76;100.00
22605;BME280;11469;49.024;8.246;2023-02-15T10:31:06;101821.84;;;1.85;100.00
22605;BME280;11469;49.024;8.246;2023-02-15T10:33:40;101826.28;;;1.91;100.00
22605;BME280;11469;49.024;8.246;2023-02-15T10:39:09;101812.66;;;1.74;100.00
22605;BME280;11469;49.024;8.246;2023-02-15T10:53:08;101821.34;;;1.98;100.00
22605;BME280;11469;49.024;8.246;2023-02-15T11:06:22;101806.53;;;2.29;100.00
22605;BME280;11469;49.024;8.246;2023-02-15T11:08:55;101801.28;;;2.33;100.00
22605;BME280;11469;49.024;8.246;2023-02-15T11:11:30;101799.34;;;2.44;100.00
22605;BME280;11469;49.024;8.246;2023-02-15T11:14:03;101797.41;;;2.44;100.00
22605;BME280;11469;49.024;8.246;2023-02-15T11:16:32;101801.00;;;2.45;100.00
22605;BME280;11469;49.024;8.246;2023-02-15T11:19:03;101792.13;;;2.38;100.00
22605;BME280;11469;49.024;8.246;2023-02-15T11:21:32;101792.72;;;2.60;100.00
22605;BME280;11469;49.024;8.246;2023-02-15T11:24:11;101786.38;;;2.64;100.00
22605;BME280;11469;49.024;8.246;2023-02-15T11:32:11;101774.47;;;2.59;100.00
22605;BME280;11469;49.024;8.246;2023-02-15T11:34:48;101777.50;;;2.62;100.00
22605;BME280;11469;49.024;8.246;2023-02-15T11:37:19;101761.72;;;2.63;100.00
22605;BME280;11469;49.024;8.246;2023-02-15T11:39:51;101764.78;;;2.66;100.00
22605;BME280;11469;49.024;8.246;2023-02-15T11:42:21;101762.28;;;2.65;100.00
22605;BME280;11469;49.024;8.246;2023-02-15T11:45:02;101744.84;;;2.70;100.00
22605;BME280;11469;49.024;8.246;2023-02-15T11:47:30;101742.91;;;2.60;100.00
22605;BME280;11469;49.024;8.246;2023-02-15T11:49:56;101740.97;;;2.65;100.00
22605;BME280;11469;49.024;8.246;2023-02-15T11:52:22;101742.09;;;2.80;100.00
22605;BME280;11469;49.024;8.246;2023-02-15T11:54:50;101744.00;;;2.84;100.00
22605;BME280;11469;49.024;8.246;2023-02-15T11:57:31;101749.53;;;2.89;100.00
22605;BME280;11469;49.024;8.246;2023-02-15T12:00:10;101736.25;;;2.91;100.00
22605;BME280;11469;49.024;8.246;2023-02-15T12:02:39;101735.97;;;2.93;100.00
22605;BME280;11469;49.024;8.246;2023-02-15T12:05:17;101727.38;;;2.89;100.00
22605;BME280;11469;49.024;8.246;2023-02-15T12:08:23;101731.81;;;2.90;100.00
22605;BME280;11469;49.024;8.246;2023-02-15T12:10:58;101724.31;;;2.96;100.00
22605;BME280;11469;49.024;8.246;2023-02-15T12:13:25;101724.03;;;3.03;100.00
22605;BME280;11469;49.024;8.246;2023-02-15T12:15:56;101729.56;;;3.08;100.00
22605;BME280;11469;49.024;8.246;2023-02-15T12:18:37;101724.59;;;3.15;100.00
22605;BME280;11469;49.024;8.246;2023-02-15T12:21:10;101715.97;;;3.26;100.00
22605;BME280;11469;49.024;8.246;2023-02-15T12:23:55;101720.13;;;3.29;100.00
22605;BME280;11469;49.024;8.246;2023-02-15T12:26:29;101705.16;;;3.25;100.00
22605;BME280;11469;49.024;8.246;2023-02-15T12:28:58;101701.56;;;3.29;100.00
22605;BME280;11469;49.024;8.246;2023-02-15T12:31:31;101697.06;;;3.39;100.00
22605;BME280;11469;49.024;8.246;2023-02-15T12:34:01;101698.44;;;3.46;100.00
22605;BME280;11469;49.024;8.246;2023-02-15T12:36:34;101699.81;;;3.44;100.00
22605;BME280;11469;49.024;8.246;2023-02-15T12:41:45;101703.97;;;3.46;100.00
22605;BME280;11469;49.024;8.246;2023-02-15T12:44:19;101697.91;;;3.34;100.00
22605;BME280;11469;49.024;8.246;2023-02-15T12:47:04;101695.69;;;3.31;100.00
22605;BME280;11469;49.024;8.246;2023-02-15T12:49:36;101696.50;;;3.37;100.00
22605;BME280;11469;49.024;8.246;2023-02-15T12:52:05;101694.81;;;3.46;100.00
22605;BME280;11469;49.024;8.246;2023-02-15T12:54:39;101695.63;;;3.51;100.00
22605;BME280;11469;49.024;8.246;2023-02-15T13:02:34;101691.75;;;3.52;100.00
22605;BME280;11469;49.024;8.246;2023-02-15T13:05:36;101685.09;;;3.53;100.00
22605;BME280;11469;49.024;8.246;2023-02-15T13:08:12;101677.88;;;3.57;100.00
22605;BME280;11469;49.024;8.246;2023-02-15T13:10:58;101679.56;;;3.53;100.00
22605;BME280;11469;49.024;8.246;2023-02-15T13:13:31;101676.22;;;3.56;100.00
22605;BME280;11469;49.024;8.246;2023-02-15T13:16:04;101674.28;;;3.57;100.00
22605;BME280;11469;49.024;8.246;2023-02-15T13:18:38;101667.16;;;3.36;100.00
22605;BME280;11469;49.024;8.246;2023-02-15T13:21:13;101671.13;;;3.14;100.00
22605;BME280;11469;49.024;8.246;2023-02-15T13:23:43;101661.97;;;3.09;100.00
22605;BME280;11469;49.024;8.246;2023-02-15T13:26:14;101664.44;;;3.20;100.00
22605;BME280;11469;49.024;8.246;2023-02-15T13:28:47;101666.13;;;3.16;100.00
22605;BME280;11469;49.024;8.246;2023-02-15T13:31:17;101665.84;;;3.18;100.00
22605;BME280;11469;49.024;8.246;2023-02-15T13:33:46;101663.31;;;3.26;100.00
22605;BME280;11469;49.024;8.246;2023-02-15T13:41:33;101644.59;;;3.57;100.00
22605;BME280;11469;49.024;8.246;2023-02-15T13:44:08;101653.72;;;3.63;100.00
22605;BME280;11469;49.024;8.246;2023-02-15T13:46:48;101645.94;;;3.70;100.00
22605;BME280;11469;49.024;8.246;2023-02-15T13:52:15;101635.56;;;3.86;100.00
22605;BME280;11469;49.024;8.246;2023-02-15T13:55:02;101638.19;;;3.67;100.00
22605;BME280;11469;49.024;8.246;2023-02-15T14:11:18;101631.97;;;3.31;100.00
22605;BME280;11469;49.024;8.246;2023-02-15T14:19:27;101621.09;;;3.45;100.00
22605;BME280;11469;49.024;8.246;2023-02-15T14:28:01;101628.81;;;3.58;100.00
22605;BME280;11469;49.024;8.246;2023-02-15T14:30:32;101628.59;;;3.44;100.00
22605;BME280;11469;49.024;8.246;2023-02-15T14:33:24;101628.81;;;3.53;100.00
22605;BME280;11469;49.024;8.246;2023-02-15T14:35:53;101634.34;;;3.58;100.00
22605;BME280;11469;49.024;8.246;2023-02-15T14:41:06;101631.81;;;3.66;100.00
22605;BME280;11469;49.024;8.246;2023-02-15T14:43:48;101622.44;;;3.52;100.00
22605;BME280;11469;49.024;8.246;2023-02-15T14:46:33;101623.00;;;3.49;100.00
22605;BME280;11469;49.024;8.246;2023-02-15T14:49:21;101621.91;;;3.50;100.00
22605;BME280;11469;49.024;8.246;2023-02-15T14:57:20;101612.97;;;3.63;100.00
22605;BME280;11469;49.024;8.246;2023-02-15T15:01:59;101617.09;;;3.71;100.00
22605;BME280;11469;49.024;8.246;2023-02-15T15:04:31;101612.63;;;3.75;100.00
22605;BME280;11469;49.024;8.246;2023-02-15T15:07:19;101612.63;;;3.75;100.00
22605;BME280;11469;49.024;8.246;2023-02-15T15:09:57;101614.47;;;3.85;100.00
22605;BME280;11469;49.024;8.246;2023-02-15T15:14:53;101608.91;;;3.90;100.00
22605;BME280;11469;49.024;8.246;2023-02-15T15:20:01;101613.06;;;3.87;100.00
22605;BME280;11469;49.024;8.246;2023-02-15T15:22:29;101611.16;;;3.83;100.00
22605;BME280;11469;49.024;8.246;2023-02-15T15:24:56;101608.09;;;3.84;100.00
22605;BME280;11469;49.024;8.246;2023-02-15T15:41:23;101594.53;;;3.83;100.00
22605;BME280;11469;49.024;8.246;2023-02-15T15:46:33;101596.03;;;3.70;100.00
22605;BME280;11469;49.024;8.246;2023-02-15T15:49:12;101594.09;;;3.65;100.00
22605;BME280;11469;49.024;8.246;2023-02-15T15:51:41;101588.56;;;3.65;100.00
22605;BME280;11469;49.024;8.246;2023-02-15T15:54:19;101596.66;;;3.57;100.00